sensor_id;sensor_type;location;lat;lon;timestamp;temperature;humidity
14924;DHT22;7554;43.600;1.480;2023-09-08T00:02:17;21.30;1.00
14924;DHT22;7554;43.600;1.480;2023-09-08T00:04:44;21.20;1.00
14924;DHT22;7554;43.600;1.480;2023-09-08T00:07:11;21.20;1.00
14924;DHT22;7554;43.600;1.480;2023-09-08T00:09:39;21.20;1.00
14924;DHT22;7554;43.600;1.480;2023-09-08T00:12:08;21.10;1.00
14924;DHT22;7554;43.600;1.480;2023-09-08T00:14:35;21.10;1.00
14924;DHT22;7554;43.600;1.480;2023-09-08T00:17:03;21.10;1.00
14924;DHT22;7554;43.600;1.480;2023-09-08T00:19:30;21.10;1.00
14924;DHT22;7554;43.600;1.480;2023-09-08T00:21:58;21.10;1.00
14924;DHT22;7554;43.600;1.480;2023-09-08T00:24:27;21.00;1.00
14924;DHT22;7554;43.600;1.480;2023-09-08T00:26:54;20.90;1.00
14924;DHT22;7554;43.600;1.480;2023-09-08T00:29:23;20.90;1.00
14924;DHT22;7554;43.600;1.480;2023-09-08T00:31:50;20.80;1.00
14924;DHT22;7554;43.600;1.480;2023-09-08T00:34:18;20.70;1.00
14924;DHT22;7554;43.600;1.480;2023-09-08T00:36:45;20.70;1.00
14924;DHT22;7554;43.600;1.480;2023-09-08T00:39:13;20.70;1.00
14924;DHT22;7554;43.600;1.480;2023-09-08T00:41:40;20.70;1.00
14924;DHT22;7554;43.600;1.480;2023-09-08T00:44:07;20.70;1.00
14924;DHT22;7554;43.600;1.480;2023-09-08T00:46:38;20.70;1.00
14924;DHT22;7554;43.600;1.480;2023-09-08T00:49:06;20.70;1.00
14924;DHT22;7554;43.600;1.480;2023-09-08T00:51:34;20.70;1.00
14924;DHT22;7554;43.600;1.480;2023-09-08T00:54:04;20.70;1.00
14924;DHT22;7554;43.600;1.480;2023-09-08T00:56:33;20.70;1.00
14924;DHT22;7554;43.600;1.480;2023-09-08T00:59:01;20.70;1.00
14924;DHT22;7554;43.600;1.480;2023-09-08T01:01:29;20.60;1.00
14924;DHT22;7554;43.600;1.480;2023-09-08T01:03:58;20.60;1.00
14924;DHT22;7554;43.600;1.480;2023-09-08T01:06:26;20.60;1.00
14924;DHT22;7554;43.600;1.480;2023-09-08T01:08:54;20.60;1.00
14924;DHT22;7554;43.600;1.480;2023-09-08T01:11:21;20.60;1.00
14924;DHT22;7554;43.600;1.480;2023-09-08T01:13:49;20.60;1.00
14924;DHT22;7554;43.600;1.480;2023-09-08T01:16:16;20.60;1.00
14924;DHT22;7554;43.600;1.480;2023-09-08T01:18:45;20.50;1.00
14924;DHT22;7554;43.600;1.480;2023-09-08T01:21:35;20.40;1.00
14924;DHT22;7554;43.600;1.480;2023-09-08T01:24:24;20.40;1.00
14924;DHT22;7554;43.600;1.480;2023-09-08T01:26:56;20.40;1.00
14924;DHT22;7554;43.600;1.480;2023-09-08T01:29:24;20.40;1.00
14924;DHT22;7554;43.600;1.480;2023-09-08T01:31:52;20.30;1.00
14924;DHT22;7554;43.600;1.480;2023-09-08T01:34:20;20.30;1.00
14924;DHT22;7554;43.600;1.480;2023-09-08T01:36:47;20.30;1.00
14924;DHT22;7554;43.600;1.480;2023-09-08T01:39:15;20.30;1.00
14924;DHT22;7554;43.600;1.480;2023-09-08T01:41:42;20.30;1.00
14924;DHT22;7554;43.600;1.480;2023-09-08T01:44:11;20.30;1.00
14924;DHT22;7554;43.600;1.480;2023-09-08T01:46:38;20.30;1.00
14924;DHT22;7554;43.600;1.480;2023-09-08T01:49:06;20.30;1.00
14924;DHT22;7554;43.600;1.480;2023-09-08T01:51:34;20.30;1.00
14924;DHT22;7554;43.600;1.480;2023-09-08T01:54:01;20.30;1.00
14924;DHT22;7554;43.600;1.480;2023-09-08T01:56:28;20.30;1.00
14924;DHT22;7554;43.600;1.480;2023-09-08T01:58:56;20.30;1.00
14924;DHT22;7554;43.600;1.480;2023-09-08T02:01:26;20.30;1.00
14924;DHT22;7554;43.600;1.480;2023-09-08T02:03:53;20.20;1.00
14924;DHT22;7554;43.600;1.480;2023-09-08T02:06:21;20.20;1.00
14924;DHT22;7554;43.600;1.480;2023-09-08T02:08:48;20.20;1.00
14924;DHT22;7554;43.600;1.480;2023-09-08T02:11:15;20.10;1.00
14924;DHT22;7554;43.600;1.480;2023-09-08T02:13:43;20.10;1.00
14924;DHT22;7554;43.600;1.480;2023-09-08T02:16:13;20.10;1.00
14924;DHT22;7554;43.600;1.480;2023-09-08T02:18:42;20.00;1.00
14924;DHT22;7554;43.600;1.480;2023-09-08T02:21:09;19.90;1.00
14924;DHT22;7554;43.600;1.480;2023-09-08T02:23:37;19.80;1.00
14924;DHT22;7554;43.600;1.480;2023-09-08T02:26:04;19.80;1.00
14924;DHT22;7554;43.600;1.480;2023-09-08T02:28:32;19.80;1.00
14924;DHT22;7554;43.600;1.480;2023-09-08T02:30:59;19.80;1.00
14924;DHT22;7554;43.600;1.480;2023-09-08T02:33:26;19.80;1.00
14924;DHT22;7554;43.600;1.480;2023-09-08T02:35:55;19.80;1.00
14924;DHT22;7554;43.600;1.480;2023-09-08T02:38:28;19.80;1.00
14924;DHT22;7554;43.600;1.480;2023-09-08T02:40:55;19.70;1.00
14924;DHT22;7554;43.600;1.480;2023-09-08T02:43:22;19.70;1.00
14924;DHT22;7554;43.600;1.480;2023-09-08T02:45:49;19.70;1.00
14924;DHT22;7554;43.600;1.480;2023-09-08T02:48:17;19.60;1.00
14924;DHT22;7554;43.600;1.480;2023-09-08T02:50:44;19.70;1.00
14924;DHT22;7554;43.600;1.480;2023-09-08T02:53:13;19.60;1.00
14924;DHT22;7554;43.600;1.480;2023-09-08T02:55:40;19.60;1.00
14924;DHT22;7554;43.600;1.480;2023-09-08T02:58:07;19.70;1.00
14924;DHT22;7554;43.600;1.480;2023-09-08T03:00:35;19.80;1.00
14924;DHT22;7554;43.600;1.480;2023-09-08T03:03:02;19.80;1.00
14924;DHT22;7554;43.600;1.480;2023-09-08T03:05:31;19.70;1.00
14924;DHT22;7554;43.600;1.480;2023-09-08T03:07:59;19.90;1.00
14924;DHT22;7554;43.600;1.480;2023-09-08T03:10:27;20.00;1.00
14924;DHT22;7554;43.600;1.480;2023-09-08T03:12:55;19.80;1.00
14924;DHT22;7554;43.600;1.480;2023-09-08T03:15:22;19.70;1.00
14924;DHT22;7554;43.600;1.480;2023-09-08T03:17:51;19.70;1.00
14924;DHT22;7554;43.600;1.480;2023-09-08T03:20:19;19.60;1.00
14924;DHT22;7554;43.600;1.480;2023-09-08T03:22:46;19.60;1.00
14924;DHT22;7554;43.600;1.480;2023-09-08T03:25:14;19.60;1.00
14924;DHT22;7554;43.600;1.480;2023-09-08T03:27:43;19.50;1.00
14924;DHT22;7554;43.600;1.480;2023-09-08T03:30:11;19.50;1.00
14924;DHT22;7554;43.600;1.480;2023-09-08T03:32:38;19.50;1.00
14924;DHT22;7554;43.600;1.480;2023-09-08T03:35:06;19.50;1.00
14924;DHT22;7554;43.600;1.480;2023-09-08T03:37:34;19.40;1.00
14924;DHT22;7554;43.600;1.480;2023-09-08T03:40:01;19.50;1.00
14924;DHT22;7554;43.600;1.480;2023-09-08T03:42:30;19.50;1.00
14924;DHT22;7554;43.600;1.480;2023-09-08T03:44:59;19.50;1.00
14924;DHT22;7554;43.600;1.480;2023-09-08T03:47:26;19.50;1.00
14924;DHT22;7554;43.600;1.480;2023-09-08T03:49:53;19.50;1.00
14924;DHT22;7554;43.600;1.480;2023-09-08T03:52:21;19.40;1.00
14924;DHT22;7554;43.600;1.480;2023-09-08T03:54:48;19.40;1.00
14924;DHT22;7554;43.600;1.480;2023-09-08T03:57:16;19.40;1.00
14924;DHT22;7554;43.600;1.480;2023-09-08T03:59:43;19.30;1.00
14924;DHT22;7554;43.600;1.480;2023-09-08T04:02:12;19.30;1.00
14924;DHT22;7554;43.600;1.480;2023-09-08T04:04:40;19.30;1.00
14924;DHT22;7554;43.600;1.480;2023-09-08T04:07:07;19.30;1.00
14924;DHT22;7554;43.600;1.480;2023-09-08T04:09:34;19.20;1.00
14924;DHT22;7554;43.600;1.480;2023-09-08T04:12:02;19.20;1.00
14924;DHT22;7554;43.600;1.480;2023-09-08T04:14:29;19.20;1.00
14924;DHT22;7554;43.600;1.480;2023-09-08T04:16:57;19.10;1.00
14924;DHT22;7554;43.600;1.480;2023-09-08T04:19:26;19.10;1.00
14924;DHT22;7554;43.600;1.480;2023-09-08T04:21:53;19.10;1.00
14924;DHT22;7554;43.600;1.480;2023-09-08T04:24:20;19.00;1.00
14924;DHT22;7554;43.600;1.480;2023-09-08T04:26:48;19.10;1.00
14924;DHT22;7554;43.600;1.480;2023-09-08T04:29:15;19.10;1.00
14924;DHT22;7554;43.600;1.480;2023-09-08T04:31:42;19.00;1.00
14924;DHT22;7554;43.600;1.480;2023-09-08T04:34:10;19.00;1.00
14924;DHT22;7554;43.600;1.480;2023-09-08T04:36:38;19.00;1.00
14924;DHT22;7554;43.600;1.480;2023-09-08T04:39:06;19.00;1.00
14924;DHT22;7554;43.600;1.480;2023-09-08T04:41:36;18.90;1.00
14924;DHT22;7554;43.600;1.480;2023-09-08T04:44:06;18.90;1.00
14924;DHT22;7554;43.600;1.480;2023-09-08T04:46:34;18.90;1.00
14924;DHT22;7554;43.600;1.480;2023-09-08T04:49:02;18.80;1.00
14924;DHT22;7554;43.600;1.480;2023-09-08T04:51:29;18.90;1.00
14924;DHT22;7554;43.600;1.480;2023-09-08T04:54:01;18.90;1.00
14924;DHT22;7554;43.600;1.480;2023-09-08T04:56:29;18.90;1.00
14924;DHT22;7554;43.600;1.480;2023-09-08T04:58:56;19.00;1.00
14924;DHT22;7554;43.600;1.480;2023-09-08T05:01:26;19.00;1.00
14924;DHT22;7554;43.600;1.480;2023-09-08T05:03:57;19.00;1.00
14924;DHT22;7554;43.600;1.480;2023-09-08T05:06:25;18.90;1.00
14924;DHT22;7554;43.600;1.480;2023-09-08T05:08:52;18.80;1.00
14924;DHT22;7554;43.600;1.480;2023-09-08T05:11:21;18.80;1.00
14924;DHT22;7554;43.600;1.480;2023-09-08T05:13:48;18.70;1.00
14924;DHT22;7554;43.600;1.480;2023-09-08T05:16:15;18.60;1.00
14924;DHT22;7554;43.600;1.480;2023-09-08T05:18:44;18.60;1.00
14924;DHT22;7554;43.600;1.480;2023-09-08T05:21:12;18.60;1.00
14924;DHT22;7554;43.600;1.480;2023-09-08T05:23:39;18.70;1.00
14924;DHT22;7554;43.600;1.480;2023-09-08T05:26:07;18.80;1.00
14924;DHT22;7554;43.600;1.480;2023-09-08T05:28:36;18.80;1.00
14924;DHT22;7554;43.600;1.480;2023-09-08T05:31:03;18.90;1.00
14924;DHT22;7554;43.600;1.480;2023-09-08T05:33:31;19.20;1.00
14924;DHT22;7554;43.600;1.480;2023-09-08T05:35:58;19.80;1.00
14924;DHT22;7554;43.600;1.480;2023-09-08T05:38:25;20.30;1.00
14924;DHT22;7554;43.600;1.480;2023-09-08T05:40:54;20.80;1.00
14924;DHT22;7554;43.600;1.480;2023-09-08T05:43:25;21.30;1.00
14924;DHT22;7554;43.600;1.480;2023-09-08T05:45:54;21.40;1.00
14924;DHT22;7554;43.600;1.480;2023-09-08T05:48:21;22.00;1.00
14924;DHT22;7554;43.600;1.480;2023-09-08T05:50:49;22.20;1.00
14924;DHT22;7554;43.600;1.480;2023-09-08T05:53:16;23.00;1.00
14924;DHT22;7554;43.600;1.480;2023-09-08T05:55:43;23.50;1.00
14924;DHT22;7554;43.600;1.480;2023-09-08T05:58:11;24.00;1.00
14924;DHT22;7554;43.600;1.480;2023-09-08T06:00:38;24.60;1.00
14924;DHT22;7554;43.600;1.480;2023-09-08T06:03:07;25.10;1.00
14924;DHT22;7554;43.600;1.480;2023-09-08T06:05:34;25.70;1.00
14924;DHT22;7554;43.600;1.480;2023-09-08T06:08:01;26.00;1.00
14924;DHT22;7554;43.600;1.480;2023-09-08T06:10:29;25.80;1.00
14924;DHT22;7554;43.600;1.480;2023-09-08T06:12:56;25.70;1.00
14924;DHT22;7554;43.600;1.480;2023-09-08T06:15:24;26.50;1.00
14924;DHT22;7554;43.600;1.480;2023-09-08T06:17:51;27.00;1.00
14924;DHT22;7554;43.600;1.480;2023-09-08T06:20:20;26.90;1.00
14924;DHT22;7554;43.600;1.480;2023-09-08T06:22:49;27.60;1.00
14924;DHT22;7554;43.600;1.480;2023-09-08T06:25:16;27.80;1.00
14924;DHT22;7554;43.600;1.480;2023-09-08T06:27:43;27.40;1.00
14924;DHT22;7554;43.600;1.480;2023-09-08T06:30:12;28.50;1.00
14924;DHT22;7554;43.600;1.480;2023-09-08T06:32:42;28.90;1.00
14924;DHT22;7554;43.600;1.480;2023-09-08T06:35:10;28.70;1.00
14924;DHT22;7554;43.600;1.480;2023-09-08T06:37:39;29.60;1.00
14924;DHT22;7554;43.600;1.480;2023-09-08T06:40:07;29.70;1.00
14924;DHT22;7554;43.600;1.480;2023-09-08T06:42:34;30.10;1.00
14924;DHT22;7554;43.600;1.480;2023-09-08T06:45:02;30.70;1.00
14924;DHT22;7554;43.600;1.480;2023-09-08T06:47:29;31.60;1.00
14924;DHT22;7554;43.600;1.480;2023-09-08T06:49:57;32.50;1.00
14924;DHT22;7554;43.600;1.480;2023-09-08T06:52:24;32.90;1.00
14924;DHT22;7554;43.600;1.480;2023-09-08T06:54:52;32.60;1.00
14924;DHT22;7554;43.600;1.480;2023-09-08T06:57:20;32.90;1.00
14924;DHT22;7554;43.600;1.480;2023-09-08T06:59:47;33.70;1.00
14924;DHT22;7554;43.600;1.480;2023-09-08T07:02:15;34.00;1.00
14924;DHT22;7554;43.600;1.480;2023-09-08T07:04:42;33.70;1.00
14924;DHT22;7554;43.600;1.480;2023-09-08T07:07:09;34.00;1.00
14924;DHT22;7554;43.600;1.480;2023-09-08T07:09:37;34.30;1.00
14924;DHT22;7554;43.600;1.480;2023-09-08T07:12:06;33.30;1.00
14924;DHT22;7554;43.600;1.480;2023-09-08T07:14:34;32.50;1.00
14924;DHT22;7554;43.600;1.480;2023-09-08T07:17:01;32.50;1.00
14924;DHT22;7554;43.600;1.480;2023-09-08T07:19:28;31.50;1.00
14924;DHT22;7554;43.600;1.480;2023-09-08T07:21:56;32.80;1.00
14924;DHT22;7554;43.600;1.480;2023-09-08T07:24:23;33.80;1.00
14924;DHT22;7554;43.600;1.480;2023-09-08T07:26:51;33.90;1.00
14924;DHT22;7554;43.600;1.480;2023-09-08T07:29:19;33.30;1.00
14924;DHT22;7554;43.600;1.480;2023-09-08T07:31:47;33.40;1.00
14924;DHT22;7554;43.600;1.480;2023-09-08T07:34:14;33.30;1.00
14924;DHT22;7554;43.600;1.480;2023-09-08T07:36:42;32.90;1.00
14924;DHT22;7554;43.600;1.480;2023-09-08T07:39:09;32.90;1.00
14924;DHT22;7554;43.600;1.480;2023-09-08T07:41:36;33.80;1.00
14924;DHT22;7554;43.600;1.480;2023-09-08T07:44:06;33.60;1.00
14924;DHT22;7554;43.600;1.480;2023-09-08T07:46:35;32.60;1.00
14924;DHT22;7554;43.600;1.480;2023-09-08T07:49:02;31.60;1.00
14924;DHT22;7554;43.600;1.480;2023-09-08T07:51:30;32.00;1.00
14924;DHT22;7554;43.600;1.480;2023-09-08T07:53:57;30.90;1.00
14924;DHT22;7554;43.600;1.480;2023-09-08T07:56:25;31.20;1.00
14924;DHT22;7554;43.600;1.480;2023-09-08T07:58:52;32.30;1.00
14924;DHT22;7554;43.600;1.480;2023-09-08T08:01:19;32.00;1.00
14924;DHT22;7554;43.600;1.480;2023-09-08T08:03:48;32.10;1.00
14924;DHT22;7554;43.600;1.480;2023-09-08T08:06:15;32.70;1.00
14924;DHT22;7554;43.600;1.480;2023-09-08T08:08:43;34.80;1.00
14924;DHT22;7554;43.600;1.480;2023-09-08T08:11:11;32.60;1.00
14924;DHT22;7554;43.600;1.480;2023-09-08T08:13:38;31.20;1.00
14924;DHT22;7554;43.600;1.480;2023-09-08T08:16:06;32.20;1.00
14924;DHT22;7554;43.600;1.480;2023-09-08T08:18:33;32.50;1.00
14924;DHT22;7554;43.600;1.480;2023-09-08T08:21:02;32.20;1.00
14924;DHT22;7554;43.600;1.480;2023-09-08T08:23:30;31.10;1.00
14924;DHT22;7554;43.600;1.480;2023-09-08T08:25:58;32.80;1.00
14924;DHT22;7554;43.600;1.480;2023-09-08T08:28:26;33.90;1.00
14924;DHT22;7554;43.600;1.480;2023-09-08T08:30:53;33.60;1.00
14924;DHT22;7554;43.600;1.480;2023-09-08T08:33:21;33.40;1.00
14924;DHT22;7554;43.600;1.480;2023-09-08T08:35:52;34.70;1.00
14924;DHT22;7554;43.600;1.480;2023-09-08T08:38:21;33.70;1.00
14924;DHT22;7554;43.600;1.480;2023-09-08T08:40:48;34.10;1.00
14924;DHT22;7554;43.600;1.480;2023-09-08T08:43:16;33.10;1.00
14924;DHT22;7554;43.600;1.480;2023-09-08T08:45:43;33.10;1.00
14924;DHT22;7554;43.600;1.480;2023-09-08T08:48:13;33.00;1.00
14924;DHT22;7554;43.600;1.480;2023-09-08T08:50:43;33.40;1.00
14924;DHT22;7554;43.600;1.480;2023-09-08T08:53:10;33.10;1.00
14924;DHT22;7554;43.600;1.480;2023-09-08T08:55:40;33.10;1.00
14924;DHT22;7554;43.600;1.480;2023-09-08T08:58:08;34.10;1.00
14924;DHT22;7554;43.600;1.480;2023-09-08T09:00:36;33.50;1.00
14924;DHT22;7554;43.600;1.480;2023-09-08T09:03:05;32.30;1.00
14924;DHT22;7554;43.600;1.480;2023-09-08T09:05:33;33.80;1.00
14924;DHT22;7554;43.600;1.480;2023-09-08T09:08:02;32.80;1.00
14924;DHT22;7554;43.600;1.480;2023-09-08T09:10:31;31.60;1.00
14924;DHT22;7554;43.600;1.480;2023-09-08T09:12:59;29.80;1.00
14924;DHT22;7554;43.600;1.480;2023-09-08T09:15:30;30.00;1.00
14924;DHT22;7554;43.600;1.480;2023-09-08T09:18:04;29.40;1.00
14924;DHT22;7554;43.600;1.480;2023-09-08T09:20:32;29.60;1.00
14924;DHT22;7554;43.600;1.480;2023-09-08T09:23:00;29.20;1.00
14924;DHT22;7554;43.600;1.480;2023-09-08T09:25:30;29.50;1.00
14924;DHT22;7554;43.600;1.480;2023-09-08T09:28:00;28.80;1.00
14924;DHT22;7554;43.600;1.480;2023-09-08T09:30:43;29.00;1.00
14924;DHT22;7554;43.600;1.480;2023-09-08T09:33:12;29.00;1.00
14924;DHT22;7554;43.600;1.480;2023-09-08T09:35:41;29.40;1.00
14924;DHT22;7554;43.600;1.480;2023-09-08T09:38:08;29.10;1.00
14924;DHT22;7554;43.600;1.480;2023-09-08T09:40:37;28.60;1.00
14924;DHT22;7554;43.600;1.480;2023-09-08T09:43:07;28.60;1.00
14924;DHT22;7554;43.600;1.480;2023-09-08T09:45:35;28.80;1.00
14924;DHT22;7554;43.600;1.480;2023-09-08T09:48:03;29.20;1.00
14924;DHT22;7554;43.600;1.480;2023-09-08T09:50:32;28.50;1.00
14924;DHT22;7554;43.600;1.480;2023-09-08T09:53:00;29.00;1.00
14924;DHT22;7554;43.600;1.480;2023-09-08T09:55:29;29.10;1.00
14924;DHT22;7554;43.600;1.480;2023-09-08T09:57:58;29.10;1.00
14924;DHT22;7554;43.600;1.480;2023-09-08T10:00:31;28.60;1.00
14924;DHT22;7554;43.600;1.480;2023-09-08T10:02:59;28.50;1.00
14924;DHT22;7554;43.600;1.480;2023-09-08T10:05:27;28.60;1.00
14924;DHT22;7554;43.600;1.480;2023-09-08T10:07:54;28.30;1.00
14924;DHT22;7554;43.600;1.480;2023-09-08T10:10:23;28.80;1.00
14924;DHT22;7554;43.600;1.480;2023-09-08T10:12:53;28.60;1.00
14924;DHT22;7554;43.600;1.480;2023-09-08T10:15:22;28.80;1.00
14924;DHT22;7554;43.600;1.480;2023-09-08T10:17:54;28.90;1.00
14924;DHT22;7554;43.600;1.480;2023-09-08T10:20:23;28.90;1.00
14924;DHT22;7554;43.600;1.480;2023-09-08T10:22:54;28.80;1.00
14924;DHT22;7554;43.600;1.480;2023-09-08T10:25:25;28.80;1.00
14924;DHT22;7554;43.600;1.480;2023-09-08T10:27:55;28.40;1.00
14924;DHT22;7554;43.600;1.480;2023-09-08T10:30:24;28.50;1.00
14924;DHT22;7554;43.600;1.480;2023-09-08T10:32:53;28.50;1.00
14924;DHT22;7554;43.600;1.480;2023-09-08T10:35:21;28.50;1.00
14924;DHT22;7554;43.600;1.480;2023-09-08T10:37:48;28.80;1.00
14924;DHT22;7554;43.600;1.480;2023-09-08T10:40:23;28.90;1.00
14924;DHT22;7554;43.600;1.480;2023-09-08T10:43:06;29.10;1.00
14924;DHT22;7554;43.600;1.480;2023-09-08T10:45:33;28.90;1.00
14924;DHT22;7554;43.600;1.480;2023-09-08T10:48:03;28.80;1.00
14924;DHT22;7554;43.600;1.480;2023-09-08T10:50:31;28.90;1.00
14924;DHT22;7554;43.600;1.480;2023-09-08T10:53:12;28.70;1.00
14924;DHT22;7554;43.600;1.480;2023-09-08T10:55:40;29.00;1.00
14924;DHT22;7554;43.600;1.480;2023-09-08T10:58:10;29.10;1.00
14924;DHT22;7554;43.600;1.480;2023-09-08T11:00:44;29.00;1.00
14924;DHT22;7554;43.600;1.480;2023-09-08T11:03:14;29.00;1.00
14924;DHT22;7554;43.600;1.480;2023-09-08T11:05:52;29.10;1.00
14924;DHT22;7554;43.600;1.480;2023-09-08T11:08:20;29.20;1.00
14924;DHT22;7554;43.600;1.480;2023-09-08T11:10:47;29.10;1.00
14924;DHT22;7554;43.600;1.480;2023-09-08T11:13:16;29.30;1.00
14924;DHT22;7554;43.600;1.480;2023-09-08T11:15:44;29.10;1.00
14924;DHT22;7554;43.600;1.480;2023-09-08T11:18:13;29.00;1.00
14924;DHT22;7554;43.600;1.480;2023-09-08T11:20:40;28.80;1.00
14924;DHT22;7554;43.600;1.480;2023-09-08T11:23:08;28.90;1.00
14924;DHT22;7554;43.600;1.480;2023-09-08T11:25:37;28.90;1.00
14924;DHT22;7554;43.600;1.480;2023-09-08T11:28:04;29.20;1.00
14924;DHT22;7554;43.600;1.480;2023-09-08T11:30:32;29.20;1.00
14924;DHT22;7554;43.600;1.480;2023-09-08T11:33:01;29.10;1.00
14924;DHT22;7554;43.600;1.480;2023-09-08T11:35:32;29.00;1.00
14924;DHT22;7554;43.600;1.480;2023-09-08T11:38:00;29.10;1.00
14924;DHT22;7554;43.600;1.480;2023-09-08T11:40:30;29.20;1.00
14924;DHT22;7554;43.600;1.480;2023-09-08T11:43:00;29.20;1.00
14924;DHT22;7554;43.600;1.480;2023-09-08T11:45:28;29.10;1.00
14924;DHT22;7554;43.600;1.480;2023-09-08T11:47:55;29.00;1.00
14924;DHT22;7554;43.600;1.480;2023-09-08T11:50:23;29.20;1.00
14924;DHT22;7554;43.600;1.480;2023-09-08T11:52:53;29.20;1.00
14924;DHT22;7554;43.600;1.480;2023-09-08T11:55:22;29.30;1.00
14924;DHT22;7554;43.600;1.480;2023-09-08T11:57:51;29.40;1.00
14924;DHT22;7554;43.600;1.480;2023-09-08T12:00:21;29.40;1.00
14924;DHT22;7554;43.600;1.480;2023-09-08T12:02:49;29.40;1.00
14924;DHT22;7554;43.600;1.480;2023-09-08T12:05:21;29.40;1.00
14924;DHT22;7554;43.600;1.480;2023-09-08T12:07:52;29.40;1.00
14924;DHT22;7554;43.600;1.480;2023-09-08T12:10:19;29.40;1.00
14924;DHT22;7554;43.600;1.480;2023-09-08T12:12:49;29.50;1.00
14924;DHT22;7554;43.600;1.480;2023-09-08T12:15:32;29.50;1.00
14924;DHT22;7554;43.600;1.480;2023-09-08T12:18:00;29.40;1.00
14924;DHT22;7554;43.600;1.480;2023-09-08T12:20:28;29.50;1.00
14924;DHT22;7554;43.600;1.480;2023-09-08T12:22:58;29.60;1.00
14924;DHT22;7554;43.600;1.480;2023-09-08T12:25:26;29.60;1.00
14924;DHT22;7554;43.600;1.480;2023-09-08T12:27:54;29.60;1.00
14924;DHT22;7554;43.600;1.480;2023-09-08T12:30:23;29.60;1.00
14924;DHT22;7554;43.600;1.480;2023-09-08T12:32:56;29.60;1.00
14924;DHT22;7554;43.600;1.480;2023-09-08T12:35:24;29.40;1.00
14924;DHT22;7554;43.600;1.480;2023-09-08T12:38:01;29.50;1.00
14924;DHT22;7554;43.600;1.480;2023-09-08T12:40:30;29.60;1.00
14924;DHT22;7554;43.600;1.480;2023-09-08T12:42:57;29.50;1.00
14924;DHT22;7554;43.600;1.480;2023-09-08T12:45:26;29.70;1.00
14924;DHT22;7554;43.600;1.480;2023-09-08T12:47:54;29.70;1.00
14924;DHT22;7554;43.600;1.480;2023-09-08T12:50:23;29.60;1.00
14924;DHT22;7554;43.600;1.480;2023-09-08T12:52:51;29.80;1.00
14924;DHT22;7554;43.600;1.480;2023-09-08T12:55:20;29.90;1.00
14924;DHT22;7554;43.600;1.480;2023-09-08T12:57:49;30.00;1.00
14924;DHT22;7554;43.600;1.480;2023-09-08T13:00:20;30.00;1.00
14924;DHT22;7554;43.600;1.480;2023-09-08T13:02:48;30.00;1.00
14924;DHT22;7554;43.600;1.480;2023-09-08T13:05:15;29.90;1.00
14924;DHT22;7554;43.600;1.480;2023-09-08T13:07:43;29.60;1.00
14924;DHT22;7554;43.600;1.480;2023-09-08T13:10:10;29.80;1.00
14924;DHT22;7554;43.600;1.480;2023-09-08T13:12:40;30.00;1.00
14924;DHT22;7554;43.600;1.480;2023-09-08T13:15:08;29.90;1.00
14924;DHT22;7554;43.600;1.480;2023-09-08T13:17:35;30.00;1.00
14924;DHT22;7554;43.600;1.480;2023-09-08T13:20:04;30.00;1.00
14924;DHT22;7554;43.600;1.480;2023-09-08T13:22:32;30.10;1.00
14924;DHT22;7554;43.600;1.480;2023-09-08T13:25:00;30.00;1.00
14924;DHT22;7554;43.600;1.480;2023-09-08T13:27:27;30.10;1.00
14924;DHT22;7554;43.600;1.480;2023-09-08T13:30:08;30.10;1.00
14924;DHT22;7554;43.600;1.480;2023-09-08T13:32:35;30.10;1.00
14924;DHT22;7554;43.600;1.480;2023-09-08T13:35:03;30.10;1.00
14924;DHT22;7554;43.600;1.480;2023-09-08T13:37:30;30.10;1.00
14924;DHT22;7554;43.600;1.480;2023-09-08T13:40:00;30.10;1.00
14924;DHT22;7554;43.600;1.480;2023-09-08T13:42:27;30.00;1.00
14924;DHT22;7554;43.600;1.480;2023-09-08T13:44:56;30.20;1.00
14924;DHT22;7554;43.600;1.480;2023-09-08T13:47:23;30.30;1.00
14924;DHT22;7554;43.600;1.480;2023-09-08T13:49:50;30.20;1.00
14924;DHT22;7554;43.600;1.480;2023-09-08T13:52:18;30.40;1.00
14924;DHT22;7554;43.600;1.480;2023-09-08T13:54:45;30.30;1.00
14924;DHT22;7554;43.600;1.480;2023-09-08T13:57:12;30.20;1.00
14924;DHT22;7554;43.600;1.480;2023-09-08T13:59:40;30.20;1.00
14924;DHT22;7554;43.600;1.480;2023-09-08T14:02:09;30.30;1.00
14924;DHT22;7554;43.600;1.480;2023-09-08T14:04:36;30.50;1.00
14924;DHT22;7554;43.600;1.480;2023-09-08T14:07:05;30.50;1.00
14924;DHT22;7554;43.600;1.480;2023-09-08T14:09:33;30.40;1.00
14924;DHT22;7554;43.600;1.480;2023-09-08T14:12:00;30.20;1.00
14924;DHT22;7554;43.600;1.480;2023-09-08T14:14:27;30.40;1.00
14924;DHT22;7554;43.600;1.480;2023-09-08T14:16:55;30.40;1.00
14924;DHT22;7554;43.600;1.480;2023-09-08T14:19:24;30.50;1.00
14924;DHT22;7554;43.600;1.480;2023-09-08T14:21:51;30.40;1.00
14924;DHT22;7554;43.600;1.480;2023-09-08T14:24:18;30.30;1.00
14924;DHT22;7554;43.600;1.480;2023-09-08T14:26:45;30.20;1.00
14924;DHT22;7554;43.600;1.480;2023-09-08T14:29:13;30.40;1.00
14924;DHT22;7554;43.600;1.480;2023-09-08T14:31:40;30.40;1.00
14924;DHT22;7554;43.600;1.480;2023-09-08T14:34:09;30.40;1.00
14924;DHT22;7554;43.600;1.480;2023-09-08T14:36:37;30.40;1.00
14924;DHT22;7554;43.600;1.480;2023-09-08T14:39:05;30.40;1.00
14924;DHT22;7554;43.600;1.480;2023-09-08T14:41:32;30.30;1.00
14924;DHT22;7554;43.600;1.480;2023-09-08T14:43:59;30.30;1.00
14924;DHT22;7554;43.600;1.480;2023-09-08T14:46:27;30.40;1.00
14924;DHT22;7554;43.600;1.480;2023-09-08T14:48:54;30.50;1.00
14924;DHT22;7554;43.600;1.480;2023-09-08T14:51:22;30.50;1.00
14924;DHT22;7554;43.600;1.480;2023-09-08T14:53:51;30.50;1.00
14924;DHT22;7554;43.600;1.480;2023-09-08T14:56:18;30.50;1.00
14924;DHT22;7554;43.600;1.480;2023-09-08T14:58:46;30.40;1.00
14924;DHT22;7554;43.600;1.480;2023-09-08T15:01:13;30.40;1.00
14924;DHT22;7554;43.600;1.480;2023-09-08T15:03:41;30.40;1.00
14924;DHT22;7554;43.600;1.480;2023-09-08T15:06:08;30.30;1.00
14924;DHT22;7554;43.600;1.480;2023-09-08T15:08:36;30.30;1.00
14924;DHT22;7554;43.600;1.480;2023-09-08T15:11:04;30.40;1.00
14924;DHT22;7554;43.600;1.480;2023-09-08T15:13:32;30.30;1.00
14924;DHT22;7554;43.600;1.480;2023-09-08T15:15:59;30.40;1.00
14924;DHT22;7554;43.600;1.480;2023-09-08T15:18:26;30.40;1.00
14924;DHT22;7554;43.600;1.480;2023-09-08T15:20:54;30.30;1.00
14924;DHT22;7554;43.600;1.480;2023-09-08T15:23:22;30.30;1.00
14924;DHT22;7554;43.600;1.480;2023-09-08T15:25:53;30.30;1.00
14924;DHT22;7554;43.600;1.480;2023-09-08T15:28:22;30.30;1.00
14924;DHT22;7554;43.600;1.480;2023-09-08T15:30:52;30.40;1.00
14924;DHT22;7554;43.600;1.480;2023-09-08T15:33:20;30.40;1.00
14924;DHT22;7554;43.600;1.480;2023-09-08T15:35:49;30.30;1.00
14924;DHT22;7554;43.600;1.480;2023-09-08T15:38:16;30.20;1.00
14924;DHT22;7554;43.600;1.480;2023-09-08T15:41:13;30.20;1.00
14924;DHT22;7554;43.600;1.480;2023-09-08T15:43:46;30.30;1.00
14924;DHT22;7554;43.600;1.480;2023-09-08T15:46:14;30.30;1.00
14924;DHT22;7554;43.600;1.480;2023-09-08T15:48:41;30.30;1.00
14924;DHT22;7554;43.600;1.480;2023-09-08T15:51:09;30.30;1.00
14924;DHT22;7554;43.600;1.480;2023-09-08T15:53:36;30.20;1.00
14924;DHT22;7554;43.600;1.480;2023-09-08T15:56:05;30.20;1.00
14924;DHT22;7554;43.600;1.480;2023-09-08T15:58:33;30.30;1.00
14924;DHT22;7554;43.600;1.480;2023-09-08T16:01:02;30.20;1.00
14924;DHT22;7554;43.600;1.480;2023-09-08T16:03:30;30.10;1.00
14924;DHT22;7554;43.600;1.480;2023-09-08T16:05:58;30.10;1.00
14924;DHT22;7554;43.600;1.480;2023-09-08T16:08:25;30.00;1.00
14924;DHT22;7554;43.600;1.480;2023-09-08T16:10:53;30.00;1.00